createdAt,value
2019-04-05T00:01:12.326Z,101005.03
2019-04-05T00:03:43.869Z,101002.09
2019-04-05T00:06:15.742Z,101000.88
2019-04-05T00:08:47.395Z,101005.59
2019-04-05T00:11:18.756Z,100998.48
2019-04-05T00:13:50.499Z,100999.91
2019-04-05T00:16:21.838Z,101000.03
2019-04-05T00:18:53.396Z,101007.67
2019-04-05T00:21:24.945Z,101005.03
2019-04-05T00:23:56.606Z,101010.52
2019-04-05T00:26:28.154Z,101013.06
2019-04-05T00:29:00.729Z,101015.16
2019-04-05T00:31:32.552Z,101010.41
2019-04-05T00:34:04.200Z,101019.22
2019-04-05T00:36:35.968Z,101016.66
2019-04-05T00:39:08.993Z,101014.29
2019-04-05T00:41:40.469Z,101014.87
2019-04-05T00:44:12.730Z,101018.77
2019-04-05T00:46:44.816Z,101019.14
2019-04-05T00:49:16.638Z,101023.87
2019-04-05T00:51:48.216Z,101026.70
2019-04-05T00:54:19.958Z,101021.06
2019-04-05T00:56:51.291Z,101025.97
2019-04-05T00:59:22.972Z,101019.36
2019-04-05T01:01:54.408Z,101020.10
2019-04-05T01:04:26.067Z,101016.23
2019-04-05T01:06:57.925Z,101020.50
2019-04-05T01:09:29.698Z,101019.92
2019-04-05T01:12:01.024Z,101017.84
2019-04-05T01:14:32.447Z,101023.33
2019-04-05T01:17:04.371Z,101025.39
2019-04-05T01:19:35.688Z,101019.36
2019-04-05T01:22:07.248Z,101023.80
2019-04-05T01:24:39.027Z,101023.62
2019-04-05T01:27:10.858Z,101021.06
2019-04-05T01:29:43.187Z,101019.36
2019-04-05T01:32:14.739Z,101023.24
2019-04-05T01:34:46.277Z,101022.29
2019-04-05T01:37:18.102Z,101022.69
2019-04-05T01:39:51.190Z,101023.80
2019-04-05T01:42:23.144Z,101024.28
2019-04-05T01:44:54.900Z,101023.71
2019-04-05T01:47:26.666Z,101027.59
2019-04-05T01:49:58.219Z,101027.97
2019-04-05T01:52:29.866Z,101024.27
2019-04-05T01:55:01.291Z,101030.41
2019-04-05T01:57:33.074Z,101027.69
2019-04-05T02:00:10.189Z,101027.56
2019-04-05T02:02:41.708Z,101030.34
2019-04-05T02:05:13.874Z,101031.64
2019-04-05T02:07:45.427Z,101031.44
2019-04-05T02:10:17.073Z,101036.63
2019-04-05T02:12:48.737Z,101038.52
2019-04-05T02:15:27.403Z,101036.73
2019-04-05T02:17:58.882Z,101039.09
2019-04-05T02:20:30.255Z,101037.50
2019-04-05T02:23:01.822Z,101041.64
2019-04-05T02:25:33.331Z,101042.11
2019-04-05T02:28:05.042Z,101042.88
2019-04-05T02:30:36.680Z,101043.45
2019-04-05T02:33:08.262Z,101046.86
2019-04-05T02:35:39.612Z,101047.52
2019-04-05T02:38:11.262Z,101071.55
2019-04-05T02:40:43.334Z,101059.28
2019-04-05T02:43:15.567Z,101065.98
2019-04-05T02:45:47.082Z,101081.67
2019-04-05T02:48:18.771Z,101078.44
2019-04-05T02:50:52.490Z,101078.91
2019-04-05T02:53:24.338Z,101082.11
2019-04-05T02:55:55.783Z,101079.51
2019-04-05T02:58:27.431Z,101084.63
2019-04-05T03:00:59.147Z,101086.30
2019-04-05T03:03:31.030Z,101086.95
2019-04-05T03:06:02.617Z,101086.95
2019-04-05T03:08:34.366Z,101090.81
2019-04-05T03:11:06.865Z,101091.67
2019-04-05T03:13:47.310Z,101087.52
2019-04-05T03:16:21.310Z,101092.63
2019-04-05T03:18:58.936Z,101097.75
2019-04-05T03:21:30.481Z,101096.38
2019-04-05T03:24:03.731Z,101103.67
2019-04-05T03:26:38.441Z,101100.17
2019-04-05T03:31:44.921Z,101104.09
2019-04-05T03:34:16.342Z,101110.16
2019-04-05T03:36:51.413Z,101121.98
2019-04-05T03:39:23.093Z,101123.48
2019-04-05T03:41:54.788Z,101120.41
2019-04-05T03:44:26.817Z,101124.45
2019-04-05T03:46:59.578Z,101127.69
2019-04-05T03:49:31.265Z,101124.34
2019-04-05T03:52:03.434Z,101129.32
2019-04-05T03:54:36.113Z,101126.95
2019-04-05T03:57:07.871Z,101132.19
2019-04-05T03:59:39.637Z,101139.56
2019-04-05T04:02:11.215Z,101138.56
2019-04-05T04:04:43.383Z,101138.53
2019-04-05T04:07:14.686Z,101112.34
2019-04-05T04:09:46.613Z,101139.61
2019-04-05T04:12:18.419Z,101144.02
2019-04-05T04:14:50.006Z,101148.92
2019-04-05T04:17:21.838Z,101153.23
2019-04-05T04:19:53.198Z,101148.92
2019-04-05T04:22:27.625Z,101144.11
2019-04-05T04:24:59.474Z,101144.72
2019-04-05T04:27:30.930Z,101143.08
2019-04-05T04:30:02.671Z,101143.98
2019-04-05T04:32:35.438Z,101147.38
2019-04-05T04:35:06.960Z,101143.59
2019-04-05T04:37:38.638Z,101150.28
2019-04-05T04:40:10.228Z,101151.75
2019-04-05T04:42:42.068Z,101159.39
2019-04-05T04:45:14.347Z,101153.90
2019-04-05T04:47:46.369Z,101152.86
2019-04-05T04:50:17.856Z,101144.25
2019-04-05T04:52:49.637Z,101154.45
2019-04-05T04:55:21.924Z,101156.45
2019-04-05T04:57:53.718Z,101160.21
2019-04-05T05:00:25.194Z,101151.78
2019-04-05T05:02:56.910Z,101151.68
2019-04-05T05:05:28.193Z,101149.24
2019-04-05T05:08:00.054Z,101124.78
2019-04-05T05:10:31.875Z,101161.90
2019-04-05T05:13:03.817Z,101152.81
2019-04-05T05:15:35.263Z,101148.42
2019-04-05T05:18:06.882Z,101146.59
2019-04-05T05:20:38.366Z,101156.63
2019-04-05T05:23:10.182Z,101159.22
2019-04-05T05:25:41.945Z,101150.12
2019-04-05T05:28:13.625Z,101155.97
2019-04-05T05:30:45.096Z,101161.08
2019-04-05T05:33:16.720Z,101159.34
2019-04-05T05:35:48.114Z,101162.81
2019-04-05T05:38:19.821Z,101158.89
2019-04-05T05:40:51.372Z,101163.79
2019-04-05T05:43:24.013Z,101156.84
2019-04-05T05:45:55.603Z,101161.27
2019-04-05T05:48:27.259Z,101168.15
2019-04-05T05:50:58.926Z,101159.33
2019-04-05T05:53:30.565Z,101167.02
2019-04-05T05:56:02.226Z,101169.48
2019-04-05T05:58:33.885Z,101172.61
2019-04-05T06:01:05.431Z,101164.58
2019-04-05T06:03:37.248Z,101161.18
2019-04-05T06:06:08.677Z,101160.54
2019-04-05T06:08:40.831Z,101159.09
2019-04-05T06:11:12.768Z,101162.97
2019-04-05T06:13:43.803Z,101167.64
2019-04-05T06:16:15.403Z,101164.66
2019-04-05T06:18:48.636Z,101163.94
2019-04-05T06:21:20.622Z,101173.06
2019-04-05T06:23:52.476Z,101169.09
2019-04-05T06:26:23.879Z,101166.17
2019-04-05T06:28:55.590Z,101167.56
2019-04-05T06:31:27.352Z,101178.08
2019-04-05T06:33:59.002Z,101173.23
2019-04-05T06:36:30.559Z,101173.14
2019-04-05T06:39:01.934Z,101175.86
2019-04-05T06:41:34.070Z,101178.73
2019-04-05T06:44:05.641Z,101174.14
2019-04-05T06:46:37.684Z,101175.67
2019-04-05T06:49:09.557Z,101179.05
2019-04-05T06:51:41.200Z,101176.63
2019-04-05T06:54:12.557Z,101176.23
2019-04-05T06:56:44.205Z,101180.16
2019-04-05T06:59:15.655Z,101180.06
2019-04-05T07:01:47.451Z,101179.94
2019-04-05T07:04:19.270Z,101187.17
2019-04-05T07:06:51.030Z,101187.56
2019-04-05T07:09:22.475Z,101196.91
2019-04-05T07:11:54.039Z,101197.19
2019-04-05T07:14:25.310Z,101196.42
2019-04-05T07:16:57.141Z,101195.55
2019-04-05T07:19:30.072Z,101196.42
2019-04-05T07:22:01.006Z,101190.67
2019-04-05T07:24:32.317Z,101196.88
2019-04-05T07:27:03.783Z,101190.09
2019-04-05T07:29:35.563Z,101193.58
2019-04-05T07:32:07.091Z,101200.03
2019-04-05T07:34:38.791Z,101199.16
2019-04-05T07:37:10.183Z,101194.42
2019-04-05T07:39:41.850Z,101196.63
2019-04-05T07:42:13.287Z,101195.50
2019-04-05T07:44:45.007Z,101194.57
2019-04-05T07:47:16.483Z,101197.08
2019-04-05T07:49:48.855Z,101185.23
2019-04-05T07:52:19.834Z,101196.13
2019-04-05T07:54:51.252Z,101195.81
2019-04-05T07:57:22.805Z,101198.31
2019-04-05T07:59:54.566Z,101185.98
2019-04-05T08:02:26.022Z,101199.87
2019-04-05T08:04:57.880Z,101194.92
2019-04-05T08:07:31.889Z,101197.93
2019-04-05T08:10:03.437Z,101188.92
2019-04-05T08:12:35.155Z,101188.92
2019-04-05T08:15:06.887Z,101199.89
2019-04-05T08:17:38.305Z,101192.01
2019-04-05T08:20:10.012Z,101195.94
2019-04-05T08:22:41.873Z,101201.02
2019-04-05T08:25:13.579Z,101196.88
2019-04-05T08:27:45.472Z,101189.69
2019-04-05T08:30:16.685Z,101186.22
2019-04-05T08:32:48.165Z,101184.73
2019-04-05T08:35:19.519Z,101186.97
2019-04-05T08:37:51.648Z,101183.89
2019-04-05T08:40:23.362Z,101188.03
2019-04-05T08:42:54.861Z,101186.64
2019-04-05T08:45:26.815Z,101183.58
2019-04-05T08:47:58.579Z,101180.77
2019-04-05T08:50:30.204Z,101178.42
2019-04-05T08:53:01.683Z,101185.84
2019-04-05T08:55:33.557Z,101183.66
2019-04-05T08:58:04.883Z,101181.31
2019-04-05T09:00:36.433Z,101176.92
2019-04-05T09:03:07.931Z,101179.53
2019-04-05T09:05:39.674Z,101184.03
2019-04-05T09:08:11.336Z,101181.84
2019-04-05T09:10:43.261Z,101171.14
2019-04-05T09:13:14.711Z,101176.23
2019-04-05T09:15:46.454Z,101175.50
2019-04-05T09:18:18.697Z,101173.70
2019-04-05T09:20:50.206Z,101173.49
2019-04-05T09:23:21.947Z,101172.31
2019-04-05T09:25:53.298Z,101162.78
2019-04-05T09:28:25.119Z,101162.71
2019-04-05T09:30:56.815Z,101163.78
2019-04-05T09:33:28.379Z,101159.49
2019-04-05T09:35:59.967Z,101155.37
2019-04-05T09:38:32.011Z,101159.28
2019-04-05T09:41:03.896Z,101159.91
2019-04-05T09:43:35.930Z,101164.12
2019-04-05T09:46:07.573Z,101161.08
2019-04-05T09:48:39.341Z,101162.08
2019-04-05T09:51:10.780Z,101166.30
2019-04-05T09:53:42.971Z,101162.98
2019-04-05T09:56:14.184Z,101161.64
2019-04-05T09:58:46.039Z,101159.30
2019-04-05T10:01:17.837Z,101156.49
2019-04-05T10:03:49.279Z,101158.41
2019-04-05T10:06:20.931Z,101154.82
2019-04-05T10:08:52.569Z,101154.94
2019-04-05T10:11:24.138Z,101145.73
2019-04-05T10:13:55.978Z,101139.41
2019-04-05T10:16:27.460Z,101139.41
2019-04-05T10:18:59.631Z,101144.06
2019-04-05T10:21:31.299Z,101142.97
2019-04-05T10:24:02.860Z,101149.97
2019-04-05T10:26:34.454Z,101149.25
2019-04-05T10:29:05.728Z,101150.60
2019-04-05T10:31:37.567Z,101146.59
2019-04-05T10:34:09.426Z,101147.07
2019-04-05T10:36:42.207Z,101151.20
2019-04-05T10:39:13.706Z,101148.30
2019-04-05T10:41:45.543Z,101146.41
2019-04-05T10:44:17.850Z,101142.39
2019-04-05T10:46:49.585Z,101141.98
2019-04-05T10:49:21.167Z,101139.70
2019-04-05T10:51:52.852Z,101134.42
2019-04-05T10:54:25.248Z,101143.58
2019-04-05T10:56:57.023Z,101140.31
2019-04-05T10:59:29.582Z,101132.55
2019-04-05T11:02:01.987Z,101137.60
2019-04-05T11:04:33.611Z,101134.27
2019-04-05T11:07:05.760Z,101134.20
2019-04-05T11:09:37.130Z,101132.77
2019-04-05T11:12:09.814Z,101136.25
2019-04-05T11:14:41.286Z,101137.30
2019-04-05T11:17:12.886Z,101137.78
2019-04-05T11:19:44.338Z,101133.16
2019-04-05T11:22:20.137Z,101130.22
2019-04-05T11:24:50.015Z,101127.15
2019-04-05T11:27:21.568Z,101128.52
2019-04-05T11:29:53.212Z,101120.27
2019-04-05T11:32:24.662Z,101119.53
2019-04-05T11:34:56.424Z,101122.66
2019-04-05T11:37:28.133Z,101118.04
2019-04-05T11:40:00.082Z,101121.41
2019-04-05T11:42:33.046Z,101110.30
2019-04-05T11:45:05.747Z,101109.52
2019-04-05T11:47:37.873Z,101104.20
2019-04-05T11:50:10.919Z,101106.50
2019-04-05T11:52:42.582Z,101097.33
2019-04-05T11:55:18.176Z,101094.25
2019-04-05T11:57:48.702Z,101098.45
2019-04-05T12:00:37.135Z,101097.80
2019-04-05T12:03:10.692Z,101099.49
2019-04-05T12:05:42.512Z,101091.48
2019-04-05T12:08:13.855Z,101088.66
2019-04-05T12:10:46.532Z,101093.27
2019-04-05T12:13:18.209Z,101090.92
2019-04-05T12:15:49.840Z,101084.50
2019-04-05T12:18:21.197Z,101081.73
2019-04-05T12:20:59.909Z,101083.73
2019-04-05T12:23:25.969Z,101081.47
2019-04-05T12:25:57.722Z,101085.32
2019-04-05T12:28:29.179Z,101079.38
2019-04-05T12:31:00.782Z,101079.84
2019-04-05T12:33:32.787Z,101071.61
2019-04-05T12:36:04.616Z,101077.14
2019-04-05T12:38:36.174Z,101073.03
2019-04-05T12:41:10.709Z,101075.26
2019-04-05T12:43:44.014Z,101061.72
2019-04-05T12:46:16.096Z,101068.48
2019-04-05T12:48:48.072Z,101067.52
2019-04-05T12:51:19.776Z,101069.04
2019-04-05T12:53:51.734Z,101063.72
2019-04-05T12:56:24.386Z,101061.55
2019-04-05T12:58:56.730Z,101061.38
2019-04-05T13:01:28.734Z,101064.18
2019-04-05T13:04:00.202Z,101062.70
2019-04-05T13:06:32.497Z,101054.33
2019-04-05T13:09:05.908Z,101061.46
2019-04-05T13:11:37.719Z,101046.80
2019-04-05T13:14:09.395Z,101048.40
2019-04-05T13:16:41.121Z,101050.57
2019-04-05T13:19:12.898Z,101046.62
2019-04-05T13:21:44.452Z,101044.58
2019-04-05T13:24:16.120Z,101046.93
2019-04-05T13:26:47.757Z,101040.34
2019-04-05T13:29:20.281Z,101041.35
2019-04-05T13:31:51.997Z,101032.03
2019-04-05T13:34:25.957Z,101038.77
2019-04-05T13:36:59.359Z,101039.36
2019-04-05T13:39:30.879Z,101039.41
2019-04-05T13:42:02.510Z,101043.29
2019-04-05T13:44:35.667Z,101044.70
2019-04-05T13:47:08.480Z,101041.99
2019-04-05T13:49:40.675Z,101044.50
2019-04-05T13:52:12.762Z,101036.59
2019-04-05T13:54:44.308Z,101037.09
2019-04-05T13:57:16.449Z,101036.31
2019-04-05T13:59:48.938Z,101035.48
2019-04-05T14:02:21.131Z,101040.73
2019-04-05T14:04:54.296Z,101032.26
2019-04-05T14:07:26.492Z,101036.66
2019-04-05T14:09:57.889Z,101033.13
2019-04-05T14:12:31.295Z,101033.43
2019-04-05T14:15:02.741Z,101031.47
2019-04-05T14:17:35.053Z,101033.09
2019-04-05T14:20:09.086Z,101032.91
2019-04-05T14:22:40.800Z,101033.40
2019-04-05T14:25:12.573Z,101036.27
2019-04-05T14:27:44.615Z,101032.44
2019-04-05T14:30:16.037Z,101031.30
2019-04-05T14:32:50.852Z,101030.64
2019-04-05T14:35:24.532Z,101034.03
2019-04-05T14:37:55.244Z,101027.25
2019-04-05T14:40:29.365Z,101027.43
2019-04-05T14:43:00.258Z,101025.73
2019-04-05T14:45:31.800Z,100998.95
2019-04-05T14:48:03.599Z,101033.56
2019-04-05T14:50:35.234Z,101029.03
2019-04-05T14:53:07.001Z,101033.98
2019-04-05T14:55:38.559Z,101033.84
2019-04-05T14:58:10.783Z,101036.91
2019-04-05T15:00:42.107Z,101031.69
2019-04-05T15:03:14.253Z,101033.58
2019-04-05T15:05:46.033Z,101030.08
2019-04-05T15:08:20.312Z,101031.79
2019-04-05T15:10:51.479Z,101032.02
2019-04-05T15:13:24.310Z,101028.48
2019-04-05T15:15:56.786Z,101030.85
2019-04-05T15:18:28.503Z,101025.66
2019-04-05T15:21:00.118Z,101034.75
2019-04-05T15:23:32.061Z,101023.27
2019-04-05T15:26:03.960Z,101025.64
2019-04-05T15:28:35.781Z,101027.00
2019-04-05T15:31:07.297Z,101028.00
2019-04-05T15:33:39.051Z,101025.33
2019-04-05T15:36:10.605Z,101026.20
2019-04-05T15:38:42.308Z,101025.53
2019-04-05T15:41:13.951Z,101030.41
2019-04-05T15:43:45.864Z,101033.93
2019-04-05T15:46:17.577Z,101032.09
2019-04-05T15:48:51.814Z,101030.58
2019-04-05T15:51:24.818Z,101029.06
2019-04-05T15:53:56.329Z,101029.38
2019-04-05T15:56:27.730Z,101024.14
2019-04-05T15:59:03.708Z,101035.73
2019-04-05T16:01:34.358Z,101031.33
2019-04-05T16:04:06.153Z,101030.11
2019-04-05T16:06:39.060Z,101031.92
2019-04-05T16:09:13.369Z,101035.36
2019-04-05T16:11:44.921Z,101039.55
2019-04-05T16:14:16.736Z,101040.98
2019-04-05T16:16:48.429Z,101042.27
2019-04-05T16:19:20.477Z,101043.61
2019-04-05T16:21:52.501Z,101048.98
2019-04-05T16:24:23.816Z,101048.77
2019-04-05T16:26:55.735Z,101052.93
2019-04-05T16:29:27.220Z,101057.93
2019-04-05T16:31:59.143Z,101055.03
2019-04-05T16:34:30.597Z,101053.84
2019-04-05T16:37:02.351Z,101051.95
2019-04-05T16:39:33.771Z,101059.58
2019-04-05T16:42:05.382Z,101059.73
2019-04-05T16:44:37.438Z,101056.28
2019-04-05T16:47:09.544Z,101062.97
2019-04-05T16:49:40.833Z,101063.15
2019-04-05T16:52:13.165Z,101065.17
2019-04-05T16:54:44.448Z,101073.28
2019-04-05T16:57:16.630Z,101073.91
2019-04-05T16:59:48.471Z,101077.05
2019-04-05T17:02:20.063Z,101078.05
2019-04-05T17:04:51.378Z,101083.80
2019-04-05T17:07:57.031Z,101088.48
2019-04-05T17:10:29.711Z,101085.75
2019-04-05T17:13:01.176Z,101090.57
2019-04-05T17:15:32.926Z,101091.33
2019-04-05T17:18:05.783Z,101090.39
2019-04-05T17:20:37.568Z,101094.41
2019-04-05T17:23:08.889Z,101091.88
2019-04-05T17:25:40.791Z,101091.98
2019-04-05T17:28:12.525Z,101095.69
2019-04-05T17:30:44.393Z,101091.66
2019-04-05T17:33:16.079Z,101091.81
2019-04-05T17:35:47.696Z,101094.74
2019-04-05T17:38:19.336Z,101060.73
2019-04-05T17:40:50.950Z,101099.73
2019-04-05T17:43:23.295Z,101094.11
2019-04-05T17:45:55.123Z,101095.68
2019-04-05T17:48:26.863Z,101098.72
2019-04-05T17:50:58.454Z,101103.03
2019-04-05T17:53:29.911Z,101099.13
2019-04-05T17:56:01.508Z,101102.85
2019-04-05T17:58:33.617Z,101097.95
2019-04-05T18:01:05.584Z,101096.22
2019-04-05T18:03:37.558Z,101102.29
2019-04-05T18:06:08.945Z,101093.39
2019-04-05T18:08:40.860Z,101095.95
2019-04-05T18:11:12.235Z,101092.84
2019-04-05T18:13:44.821Z,101096.58
2019-04-05T18:16:16.333Z,101098.10
2019-04-05T18:18:48.250Z,101096.91
2019-04-05T18:21:19.647Z,101097.59
2019-04-05T18:23:51.395Z,101099.42
2019-04-05T18:26:22.752Z,101099.80
2019-04-05T18:28:54.808Z,101097.74
2019-04-05T18:31:26.299Z,101101.76
2019-04-05T18:33:58.351Z,101098.63
2019-04-05T18:36:29.983Z,101101.63
2019-04-05T18:39:01.667Z,101099.60
2019-04-05T18:41:34.694Z,101109.25
2019-04-05T18:44:06.209Z,101111.23
2019-04-05T18:46:37.532Z,101107.38
2019-04-05T18:49:09.711Z,101104.77
2019-04-05T18:51:41.043Z,101103.64
2019-04-05T18:54:12.710Z,101102.64
2019-04-05T18:56:44.251Z,101109.69
2019-04-05T18:59:16.027Z,101104.90
2019-04-05T19:01:47.476Z,101107.59
2019-04-05T19:04:19.423Z,101110.28
2019-04-05T19:06:52.186Z,101110.28
2019-04-05T19:09:25.843Z,101120.74
2019-04-05T19:11:57.252Z,101114.98
2019-04-05T19:14:28.869Z,101112.22
2019-04-05T19:17:00.340Z,101115.45
2019-04-05T19:19:32.205Z,101116.67
2019-04-05T19:22:03.771Z,101118.22
2019-04-05T19:24:35.439Z,101124.33
2019-04-05T19:27:07.082Z,101130.92
2019-04-05T19:29:38.937Z,101126.56
2019-04-05T19:49:24.536Z,101129.13
2019-04-05T19:51:56.255Z,101134.45
2019-04-05T19:54:27.841Z,101130.61
2019-04-05T19:56:59.409Z,101133.88
2019-04-05T19:59:31.221Z,101130.95
2019-04-05T20:02:03.011Z,101132.89
2019-04-05T20:04:34.695Z,101131.00
2019-04-05T20:07:06.259Z,101132.24
2019-04-05T20:09:38.809Z,101128.00
2019-04-05T20:12:10.566Z,101129.52
2019-04-05T20:14:42.235Z,101132.13
2019-04-05T20:17:14.110Z,101131.45
2019-04-05T20:19:45.518Z,101136.47
2019-04-05T20:22:17.283Z,101132.44
2019-04-05T20:24:49.143Z,101132.95
2019-04-05T20:27:20.938Z,101140.41
2019-04-05T20:29:52.484Z,101143.80
2019-04-05T20:32:24.107Z,101136.80
2019-04-05T20:34:55.725Z,101140.30
2019-04-05T20:37:27.539Z,101148.72
2019-04-05T20:39:59.082Z,101149.10
2019-04-05T20:42:30.981Z,101143.19
2019-04-05T20:45:02.767Z,101145.23
2019-04-05T20:47:34.766Z,101148.27
2019-04-05T20:50:07.247Z,101146.83
2019-04-05T20:52:38.487Z,101149.46
2019-04-05T20:55:09.516Z,101150.56
2019-04-05T20:57:41.409Z,101149.95
2019-04-05T21:00:13.553Z,101149.96
2019-04-05T21:02:45.045Z,101148.16
2019-04-05T21:05:24.851Z,101111.13
2019-04-05T21:07:50.078Z,101150.08
2019-04-05T21:10:21.519Z,101144.16
2019-04-05T21:12:53.220Z,101148.87
2019-04-05T21:15:24.717Z,101150.06
2019-04-05T21:17:56.378Z,101153.06
2019-04-05T21:20:27.826Z,101149.36
2019-04-05T21:22:59.998Z,101148.09
2019-04-05T21:25:31.336Z,101155.78
2019-04-05T21:28:03.154Z,101142.33
2019-04-05T21:30:34.695Z,101145.30
2019-04-05T21:33:06.707Z,101144.45
2019-04-05T21:35:38.448Z,101144.05
2019-04-05T21:38:10.373Z,101146.46
2019-04-05T21:40:41.828Z,101150.80
2019-04-05T21:43:13.530Z,101145.75
2019-04-05T21:45:45.181Z,101145.59
2019-04-05T21:48:16.817Z,101150.59
2019-04-05T21:50:48.499Z,101147.26
2019-04-05T21:53:20.157Z,101149.72
2019-04-05T21:55:51.609Z,101149.47
2019-04-05T21:58:25.888Z,101152.55
2019-04-05T22:00:58.335Z,101153.70
2019-04-05T22:03:30.286Z,101147.78
2019-04-05T22:06:03.147Z,101154.34
2019-04-05T22:08:36.045Z,101155.96
2019-04-05T22:11:08.069Z,101161.13
2019-04-05T22:13:40.172Z,101157.68
2019-04-05T22:16:12.125Z,101154.75
2019-04-05T22:18:43.937Z,101155.41
2019-04-05T22:21:15.649Z,101154.70
2019-04-05T22:23:47.651Z,101150.49
2019-04-05T22:26:19.358Z,101156.36
2019-04-05T22:28:51.682Z,101155.33
2019-04-05T22:31:23.382Z,101160.59
2019-04-05T22:33:55.273Z,101159.51
2019-04-05T22:36:27.300Z,101153.91
2019-04-05T22:38:59.570Z,101161.58
2019-04-05T22:41:31.173Z,101156.19
2019-04-05T22:44:03.023Z,101152.69
2019-04-05T22:46:34.600Z,101156.11
2019-04-05T22:49:06.342Z,101157.20
2019-04-05T22:51:38.569Z,101152.30
2019-04-05T22:54:10.362Z,101151.69
2019-04-05T22:56:42.085Z,101156.73
2019-04-05T22:59:14.256Z,101158.75
2019-04-05T23:01:46.150Z,101157.66
2019-04-05T23:04:18.481Z,101160.94
2019-04-05T23:06:50.121Z,101161.57
2019-04-05T23:09:22.538Z,101162.78
2019-04-05T23:11:54.209Z,101155.66
2019-04-05T23:14:26.032Z,101157.46
2019-04-05T23:16:57.615Z,101161.32
2019-04-05T23:19:29.965Z,101173.19
2019-04-05T23:22:01.710Z,101162.67
2019-04-05T23:24:33.598Z,101170.64
2019-04-05T23:27:05.308Z,101163.39
2019-04-05T23:29:37.427Z,101165.92
2019-04-05T23:32:09.290Z,101165.95
2019-04-05T23:34:40.529Z,101163.00
2019-04-05T23:37:12.339Z,101166.05
2019-04-05T23:39:44.086Z,101162.39
2019-04-05T23:42:16.019Z,101159.09
2019-04-05T23:44:48.071Z,101167.38
2019-04-05T23:47:20.069Z,101163.49
2019-04-05T23:49:51.647Z,101171.18
2019-04-05T23:52:23.734Z,101172.99
2019-04-05T23:54:55.396Z,101179.42
2019-04-05T23:57:27.231Z,101180.65
2019-04-05T23:59:59.092Z,101187.50
